sensor_id;sensor_type;location;lat;lon;timestamp;pressure;altitude;pressure_sealevel;temperature;humidity
42761;BME280;31672;47.638;19.026;2022-09-06T00:00:40;100654.81;;;16.39;74.65
42761;BME280;31672;47.638;19.026;2022-09-06T00:05:43;100647.19;;;16.43;74.78
42761;BME280;31672;47.638;19.026;2022-09-06T00:10:46;100650.53;;;16.45;74.63
42761;BME280;31672;47.638;19.026;2022-09-06T00:15:49;100644.72;;;16.41;74.92
42761;BME280;31672;47.638;19.026;2022-09-06T00:20:52;100650.31;;;16.46;75.10
42761;BME280;31672;47.638;19.026;2022-09-06T00:26:02;100646.41;;;16.49;75.28
42761;BME280;31672;47.638;19.026;2022-09-06T00:31:21;100651.19;;;16.53;75.64
42761;BME280;31672;47.638;19.026;2022-09-06T00:36:24;100649.59;;;16.59;75.56
42761;BME280;31672;47.638;19.026;2022-09-06T00:41:27;100647.97;;;16.65;75.62
42761;BME280;31672;47.638;19.026;2022-09-06T00:46:31;100645.53;;;16.70;75.78
42761;BME280;31672;47.638;19.026;2022-09-06T00:51:35;100643.38;;;16.80;75.69
42761;BME280;31672;47.638;19.026;2022-09-06T00:56:41;100641.75;;;16.85;75.28
42761;BME280;31672;47.638;19.026;2022-09-06T01:01:45;100649.00;;;16.92;75.29
42761;BME280;31672;47.638;19.026;2022-09-06T01:14:09;100640.78;;;17.00;75.12
42761;BME280;31672;47.638;19.026;2022-09-06T01:24:57;100647.00;;;17.07;75.58
42761;BME280;31672;47.638;19.026;2022-09-06T01:30:11;100643.28;;;17.08;75.15
42761;BME280;31672;47.638;19.026;2022-09-06T01:35:35;100638.31;;;17.05;74.95
42761;BME280;31672;47.638;19.026;2022-09-06T01:40:40;100641.00;;;16.98;74.85
42761;BME280;31672;47.638;19.026;2022-09-06T02:03:26;100636.75;;;16.82;75.17
42761;BME280;31672;47.638;19.026;2022-09-06T02:08:40;100646.00;;;16.73;75.01
42761;BME280;31672;47.638;19.026;2022-09-06T02:13:53;100632.28;;;16.62;74.68
42761;BME280;31672;47.638;19.026;2022-09-06T02:19:35;100632.63;;;16.52;74.33
42761;BME280;31672;47.638;19.026;2022-09-06T02:24:36;100633.16;;;16.41;74.52
42761;BME280;31672;47.638;19.026;2022-09-06T02:29:42;100627.13;;;16.32;74.53
42761;BME280;31672;47.638;19.026;2022-09-06T02:34:45;100628.69;;;16.20;74.80
42761;BME280;31672;47.638;19.026;2022-09-06T02:39:48;100625.25;;;16.04;75.02
42761;BME280;31672;47.638;19.026;2022-09-06T02:44:51;100628.06;;;15.96;75.21
42761;BME280;31672;47.638;19.026;2022-09-06T02:49:54;100624.03;;;15.86;75.23
42761;BME280;31672;47.638;19.026;2022-09-06T02:54:56;100628.88;;;15.75;75.45
42761;BME280;31672;47.638;19.026;2022-09-06T03:00:00;100616.00;;;15.64;75.84
42761;BME280;31672;47.638;19.026;2022-09-06T03:05:06;100627.81;;;15.55;75.96
42761;BME280;31672;47.638;19.026;2022-09-06T03:10:09;100624.41;;;15.46;76.30
42761;BME280;31672;47.638;19.026;2022-09-06T03:15:14;100637.75;;;15.40;76.56
42761;BME280;31672;47.638;19.026;2022-09-06T03:20:18;100635.19;;;15.32;76.84
42761;BME280;31672;47.638;19.026;2022-09-06T03:25:21;100633.06;;;15.27;77.13
42761;BME280;31672;47.638;19.026;2022-09-06T03:30:24;100632.88;;;15.29;77.31
42761;BME280;31672;47.638;19.026;2022-09-06T03:35:26;100622.34;;;15.27;77.37
42761;BME280;31672;47.638;19.026;2022-09-06T03:40:29;100624.91;;;15.35;77.46
42761;BME280;31672;47.638;19.026;2022-09-06T03:45:32;100628.69;;;15.41;77.42
42761;BME280;31672;47.638;19.026;2022-09-06T03:50:35;100639.66;;;15.46;77.43
42761;BME280;31672;47.638;19.026;2022-09-06T03:55:38;100629.84;;;15.53;77.24
42761;BME280;31672;47.638;19.026;2022-09-06T04:00:42;100631.13;;;15.57;76.88
42761;BME280;31672;47.638;19.026;2022-09-06T04:05:45;100630.78;;;15.60;77.00
42761;BME280;31672;47.638;19.026;2022-09-06T04:10:56;100624.84;;;15.65;77.07
42761;BME280;31672;47.638;19.026;2022-09-06T04:15:59;100630.03;;;15.66;76.74
42761;BME280;31672;47.638;19.026;2022-09-06T04:21:02;100628.81;;;15.69;76.41
42761;BME280;31672;47.638;19.026;2022-09-06T04:26:05;100635.56;;;15.65;76.29
42761;BME280;31672;47.638;19.026;2022-09-06T04:31:08;100639.09;;;15.65;76.02
42761;BME280;31672;47.638;19.026;2022-09-06T04:36:11;100642.16;;;15.62;75.96
42761;BME280;31672;47.638;19.026;2022-09-06T04:41:16;100636.78;;;15.62;75.75
42761;BME280;31672;47.638;19.026;2022-09-06T04:46:24;100620.34;;;15.65;75.52
42761;BME280;31672;47.638;19.026;2022-09-06T04:51:27;100625.31;;;15.68;75.28
42761;BME280;31672;47.638;19.026;2022-09-06T04:56:30;100623.09;;;15.72;75.14
42761;BME280;31672;47.638;19.026;2022-09-06T05:01:33;100622.69;;;15.75;74.89
42761;BME280;31672;47.638;19.026;2022-09-06T05:06:36;100617.78;;;15.78;74.59
42761;BME280;31672;47.638;19.026;2022-09-06T05:11:40;100637.81;;;15.83;74.43
42761;BME280;31672;47.638;19.026;2022-09-06T05:16:43;100635.03;;;15.91;74.45
42761;BME280;31672;47.638;19.026;2022-09-06T05:21:50;100634.31;;;16.03;73.97
42761;BME280;31672;47.638;19.026;2022-09-06T05:26:53;100635.25;;;16.17;73.35
42761;BME280;31672;47.638;19.026;2022-09-06T05:31:56;100615.50;;;16.25;72.39
42761;BME280;31672;47.638;19.026;2022-09-06T05:36:59;100625.50;;;16.38;71.78
42761;BME280;31672;47.638;19.026;2022-09-06T05:42:02;100633.84;;;16.49;71.53
42761;BME280;31672;47.638;19.026;2022-09-06T05:47:08;100631.88;;;16.65;71.54
42761;BME280;31672;47.638;19.026;2022-09-06T05:52:11;100630.13;;;16.78;70.62
42761;BME280;31672;47.638;19.026;2022-09-06T05:57:14;100634.78;;;16.98;69.62
42761;BME280;31672;47.638;19.026;2022-09-06T06:02:17;100625.75;;;17.12;65.90
42761;BME280;31672;47.638;19.026;2022-09-06T06:07:20;100627.28;;;17.28;64.48
42761;BME280;31672;47.638;19.026;2022-09-06T06:12:23;100632.91;;;17.46;61.59
42761;BME280;31672;47.638;19.026;2022-09-06T06:17:26;100628.59;;;17.58;60.99
42761;BME280;31672;47.638;19.026;2022-09-06T06:22:29;100629.47;;;17.72;59.63
42761;BME280;31672;47.638;19.026;2022-09-06T06:27:32;100620.00;;;17.89;59.48
42761;BME280;31672;47.638;19.026;2022-09-06T06:32:36;100624.78;;;18.01;58.68
42761;BME280;31672;47.638;19.026;2022-09-06T06:37:39;100626.84;;;18.12;57.80
42761;BME280;31672;47.638;19.026;2022-09-06T06:42:43;100635.72;;;18.26;57.56
42761;BME280;31672;47.638;19.026;2022-09-06T06:47:50;100642.97;;;18.38;56.28
42761;BME280;31672;47.638;19.026;2022-09-06T06:52:53;100637.78;;;18.50;56.13
42761;BME280;31672;47.638;19.026;2022-09-06T06:57:59;100641.09;;;18.65;56.14
42761;BME280;31672;47.638;19.026;2022-09-06T07:03:02;100640.88;;;18.80;55.47
42761;BME280;31672;47.638;19.026;2022-09-06T07:08:06;100648.50;;;18.96;55.47
42761;BME280;31672;47.638;19.026;2022-09-06T07:13:09;100644.28;;;19.14;55.01
42761;BME280;31672;47.638;19.026;2022-09-06T07:18:15;100641.94;;;19.24;53.37
42761;BME280;31672;47.638;19.026;2022-09-06T07:23:18;100640.03;;;19.38;53.32
42761;BME280;31672;47.638;19.026;2022-09-06T07:28:41;100636.41;;;19.57;53.47
42761;BME280;31672;47.638;19.026;2022-09-06T07:33:44;100636.16;;;19.65;52.79
42761;BME280;31672;47.638;19.026;2022-09-06T07:38:48;100640.81;;;19.83;52.61
42761;BME280;31672;47.638;19.026;2022-09-06T07:43:52;100628.56;;;20.37;52.06
42761;BME280;31672;47.638;19.026;2022-09-06T07:48:56;100632.84;;;21.43;49.54
42761;BME280;31672;47.638;19.026;2022-09-06T07:53:59;100625.31;;;21.75;47.59
42761;BME280;31672;47.638;19.026;2022-09-06T07:59:22;100631.28;;;21.66;47.49
42761;BME280;31672;47.638;19.026;2022-09-06T08:04:25;100624.09;;;21.59;47.20
42761;BME280;31672;47.638;19.026;2022-09-06T08:09:28;100625.03;;;21.65;47.74
42761;BME280;31672;47.638;19.026;2022-09-06T08:14:34;100618.81;;;21.64;46.88
42761;BME280;31672;47.638;19.026;2022-09-06T08:19:37;100624.22;;;21.64;46.99
42761;BME280;31672;47.638;19.026;2022-09-06T08:24:40;100618.81;;;21.64;46.75
42761;BME280;31672;47.638;19.026;2022-09-06T08:29:43;100610.38;;;21.73;46.96
42761;BME280;31672;47.638;19.026;2022-09-06T08:34:46;100606.06;;;21.83;46.77
42761;BME280;31672;47.638;19.026;2022-09-06T08:39:49;100603.00;;;21.91;46.92
42761;BME280;31672;47.638;19.026;2022-09-06T08:44:52;100606.28;;;21.94;46.79
42761;BME280;31672;47.638;19.026;2022-09-06T08:50:04;100599.84;;;22.06;47.06
42761;BME280;31672;47.638;19.026;2022-09-06T09:01:05;100595.78;;;22.27;46.42
42761;BME280;31672;47.638;19.026;2022-09-06T09:06:09;100593.66;;;22.29;46.35
42761;BME280;31672;47.638;19.026;2022-09-06T09:11:21;100593.19;;;22.32;45.88
42761;BME280;31672;47.638;19.026;2022-09-06T09:16:25;100586.84;;;22.50;46.76
42761;BME280;31672;47.638;19.026;2022-09-06T09:21:32;100581.75;;;22.54;45.96
42761;BME280;31672;47.638;19.026;2022-09-06T09:27:12;100573.97;;;22.57;46.15
42761;BME280;31672;47.638;19.026;2022-09-06T09:32:41;100572.91;;;22.70;46.05
42761;BME280;31672;47.638;19.026;2022-09-06T09:37:46;100564.06;;;22.75;45.83
42761;BME280;31672;47.638;19.026;2022-09-06T09:42:55;100558.81;;;22.85;46.18
42761;BME280;31672;47.638;19.026;2022-09-06T09:48:26;100558.41;;;22.88;45.35
42761;BME280;31672;47.638;19.026;2022-09-06T09:53:29;100531.50;;;22.98;45.53
42761;BME280;31672;47.638;19.026;2022-09-06T09:58:34;100529.75;;;23.20;45.94
42761;BME280;31672;47.638;19.026;2022-09-06T10:03:38;100518.88;;;23.49;45.81
42761;BME280;31672;47.638;19.026;2022-09-06T10:09:18;100515.84;;;23.62;44.39
42761;BME280;31672;47.638;19.026;2022-09-06T10:14:43;100505.47;;;23.59;45.12
42761;BME280;31672;47.638;19.026;2022-09-06T10:19:46;100501.38;;;23.73;45.03
42761;BME280;31672;47.638;19.026;2022-09-06T10:30:09;100492.59;;;24.39;45.21
42761;BME280;31672;47.638;19.026;2022-09-06T10:35:38;100480.91;;;24.60;44.77
42761;BME280;31672;47.638;19.026;2022-09-06T10:46:18;100474.25;;;25.22;43.47
42761;BME280;31672;47.638;19.026;2022-09-06T10:51:42;100470.66;;;25.43;42.52
42761;BME280;31672;47.638;19.026;2022-09-06T10:57:07;100468.56;;;25.93;41.60
42761;BME280;31672;47.638;19.026;2022-09-06T11:09:08;100468.38;;;26.62;41.18
42761;BME280;31672;47.638;19.026;2022-09-06T11:14:13;100467.44;;;27.14;39.87
42761;BME280;31672;47.638;19.026;2022-09-06T11:19:28;100449.44;;;27.54;39.65
42761;BME280;31672;47.638;19.026;2022-09-06T11:25:03;100443.31;;;28.13;37.83
42761;BME280;31672;47.638;19.026;2022-09-06T11:30:15;100428.72;;;28.48;37.27
42761;BME280;31672;47.638;19.026;2022-09-06T11:35:31;100426.53;;;28.55;37.33
42761;BME280;31672;47.638;19.026;2022-09-06T11:40:45;100427.41;;;28.85;36.91
42761;BME280;31672;47.638;19.026;2022-09-06T11:45:51;100408.13;;;29.10;37.28
42761;BME280;31672;47.638;19.026;2022-09-06T11:56:16;100402.69;;;29.39;35.87
42761;BME280;31672;47.638;19.026;2022-09-06T12:12:06;100372.69;;;28.95;36.84
42761;BME280;31672;47.638;19.026;2022-09-06T12:27:38;100359.09;;;28.30;37.03
42761;BME280;31672;47.638;19.026;2022-09-06T12:32:52;100348.47;;;28.34;37.09
42761;BME280;31672;47.638;19.026;2022-09-06T12:38:04;100338.94;;;28.21;38.55
42761;BME280;31672;47.638;19.026;2022-09-06T12:43:10;100324.50;;;28.15;38.42
42761;BME280;31672;47.638;19.026;2022-09-06T12:48:33;100320.81;;;28.40;37.75
42761;BME280;31672;47.638;19.026;2022-09-06T12:53:36;100318.03;;;28.50;37.08
42761;BME280;31672;47.638;19.026;2022-09-06T12:58:39;100308.19;;;28.49;36.90
42761;BME280;31672;47.638;19.026;2022-09-06T13:04:57;100290.22;;;28.38;36.66
42761;BME280;31672;47.638;19.026;2022-09-06T13:09:36;100279.91;;;28.25;37.29
42761;BME280;31672;47.638;19.026;2022-09-06T13:14:43;100274.97;;;28.27;37.05
42761;BME280;31672;47.638;19.026;2022-09-06T13:19:46;100281.31;;;28.17;37.20
42761;BME280;31672;47.638;19.026;2022-09-06T13:24:55;100281.25;;;27.78;37.33
42761;BME280;31672;47.638;19.026;2022-09-06T13:35:04;100285.78;;;27.23;38.42
42761;BME280;31672;47.638;19.026;2022-09-06T13:40:42;100262.84;;;27.04;38.20
42761;BME280;31672;47.638;19.026;2022-09-06T13:46:08;100257.44;;;26.88;38.52
42761;BME280;31672;47.638;19.026;2022-09-06T13:51:12;100254.97;;;26.72;39.04
42761;BME280;31672;47.638;19.026;2022-09-06T13:56:15;100252.81;;;26.58;39.38
42761;BME280;31672;47.638;19.026;2022-09-06T14:01:18;100255.25;;;26.55;39.78
42761;BME280;31672;47.638;19.026;2022-09-06T14:06:21;100249.25;;;26.53;39.04
42761;BME280;31672;47.638;19.026;2022-09-06T14:11:24;100253.63;;;26.54;39.75
42761;BME280;31672;47.638;19.026;2022-09-06T14:16:28;100250.91;;;26.54;39.67
42761;BME280;31672;47.638;19.026;2022-09-06T14:21:31;100247.34;;;26.48;39.64
42761;BME280;31672;47.638;19.026;2022-09-06T14:26:36;100247.63;;;26.41;39.73
42761;BME280;31672;47.638;19.026;2022-09-06T14:31:40;100238.31;;;26.32;39.94
42761;BME280;31672;47.638;19.026;2022-09-06T14:36:43;100235.03;;;26.25;41.01
42761;BME280;31672;47.638;19.026;2022-09-06T14:41:46;100235.56;;;26.17;41.36
42761;BME280;31672;47.638;19.026;2022-09-06T14:46:49;100237.19;;;26.08;41.47
42761;BME280;31672;47.638;19.026;2022-09-06T14:51:55;100239.34;;;26.01;42.53
42761;BME280;31672;47.638;19.026;2022-09-06T14:56:58;100245.88;;;25.95;43.60
42761;BME280;31672;47.638;19.026;2022-09-06T15:02:01;100249.09;;;25.81;43.08
42761;BME280;31672;47.638;19.026;2022-09-06T15:07:05;100247.94;;;25.72;44.02
42761;BME280;31672;47.638;19.026;2022-09-06T15:12:08;100242.72;;;25.55;43.57
42761;BME280;31672;47.638;19.026;2022-09-06T15:17:11;100245.94;;;25.47;44.68
42761;BME280;31672;47.638;19.026;2022-09-06T15:22:14;100259.22;;;25.33;44.30
42761;BME280;31672;47.638;19.026;2022-09-06T15:27:17;100246.91;;;25.21;44.65
42761;BME280;31672;47.638;19.026;2022-09-06T15:32:20;100255.25;;;25.09;45.75
42761;BME280;31672;47.638;19.026;2022-09-06T15:37:24;100257.28;;;24.92;46.52
42761;BME280;31672;47.638;19.026;2022-09-06T15:42:27;100257.16;;;24.71;47.71
42761;BME280;31672;47.638;19.026;2022-09-06T15:47:30;100271.94;;;24.53;49.05
42761;BME280;31672;47.638;19.026;2022-09-06T15:52:36;100270.41;;;24.36;49.69
42761;BME280;31672;47.638;19.026;2022-09-06T15:57:39;100281.94;;;24.26;50.22
42761;BME280;31672;47.638;19.026;2022-09-06T16:02:42;100298.66;;;24.13;50.11
42761;BME280;31672;47.638;19.026;2022-09-06T16:07:46;100290.53;;;23.91;50.24
42761;BME280;31672;47.638;19.026;2022-09-06T16:12:51;100302.50;;;23.73;51.14
42761;BME280;31672;47.638;19.026;2022-09-06T16:17:54;100317.50;;;23.59;51.95
42761;BME280;31672;47.638;19.026;2022-09-06T16:22:59;100322.94;;;23.42;53.54
42761;BME280;31672;47.638;19.026;2022-09-06T16:28:02;100323.88;;;23.14;55.72
42761;BME280;31672;47.638;19.026;2022-09-06T16:33:05;100318.25;;;22.70;59.09
42761;BME280;31672;47.638;19.026;2022-09-06T16:38:08;100305.69;;;22.18;61.12
42761;BME280;31672;47.638;19.026;2022-09-06T16:43:12;100302.28;;;21.71;64.86
42761;BME280;31672;47.638;19.026;2022-09-06T16:48:16;100302.34;;;21.36;67.48
42761;BME280;31672;47.638;19.026;2022-09-06T16:53:19;100298.41;;;21.08;68.55
42761;BME280;31672;47.638;19.026;2022-09-06T16:58:23;100301.22;;;20.90;69.68
42761;BME280;31672;47.638;19.026;2022-09-06T17:03:26;100300.94;;;20.68;72.17
42761;BME280;31672;47.638;19.026;2022-09-06T17:08:34;100312.53;;;20.45;74.10
42761;BME280;31672;47.638;19.026;2022-09-06T17:13:38;100310.56;;;20.34;75.64
42761;BME280;31672;47.638;19.026;2022-09-06T17:18:42;100315.69;;;20.24;76.48
42761;BME280;31672;47.638;19.026;2022-09-06T17:23:45;100312.50;;;20.15;77.39
42761;BME280;31672;47.638;19.026;2022-09-06T17:28:49;100307.16;;;20.09;78.37
42761;BME280;31672;47.638;19.026;2022-09-06T17:33:52;100315.97;;;20.04;79.29
42761;BME280;31672;47.638;19.026;2022-09-06T17:39:08;100327.28;;;19.94;80.12
42761;BME280;31672;47.638;19.026;2022-09-06T17:44:15;100323.25;;;19.85;80.65
42761;BME280;31672;47.638;19.026;2022-09-06T17:49:18;100322.47;;;19.78;81.41
42761;BME280;31672;47.638;19.026;2022-09-06T17:54:21;100330.22;;;19.74;82.03
42761;BME280;31672;47.638;19.026;2022-09-06T17:59:25;100333.34;;;19.71;82.16
42761;BME280;31672;47.638;19.026;2022-09-06T18:04:27;100335.88;;;19.66;81.47
42761;BME280;31672;47.638;19.026;2022-09-06T18:09:30;100338.88;;;19.58;82.20
42761;BME280;31672;47.638;19.026;2022-09-06T18:14:34;100351.34;;;19.52;82.82
42761;BME280;31672;47.638;19.026;2022-09-06T18:19:37;100354.09;;;19.46;82.95
42761;BME280;31672;47.638;19.026;2022-09-06T18:24:40;100354.75;;;19.41;82.84
42761;BME280;31672;47.638;19.026;2022-09-06T18:29:42;100351.91;;;19.36;83.19
42761;BME280;31672;47.638;19.026;2022-09-06T18:34:45;100356.28;;;19.37;83.82
42761;BME280;31672;47.638;19.026;2022-09-06T18:39:48;100351.09;;;19.36;83.82
42761;BME280;31672;47.638;19.026;2022-09-06T18:44:51;100342.84;;;19.31;83.74
42761;BME280;31672;47.638;19.026;2022-09-06T18:49:55;100338.56;;;19.23;83.75
42761;BME280;31672;47.638;19.026;2022-09-06T18:54:59;100353.72;;;19.17;83.91
42761;BME280;31672;47.638;19.026;2022-09-06T19:00:02;100350.88;;;19.12;84.03
42761;BME280;31672;47.638;19.026;2022-09-06T19:05:06;100367.25;;;19.11;84.33
42761;BME280;31672;47.638;19.026;2022-09-06T19:10:09;100360.06;;;19.05;84.34
42761;BME280;31672;47.638;19.026;2022-09-06T19:15:13;100362.53;;;19.06;84.65
42761;BME280;31672;47.638;19.026;2022-09-06T19:20:20;100356.78;;;19.03;84.92
42761;BME280;31672;47.638;19.026;2022-09-06T19:25:23;100356.31;;;19.06;84.97
42761;BME280;31672;47.638;19.026;2022-09-06T19:30:26;100353.03;;;19.04;84.97
42761;BME280;31672;47.638;19.026;2022-09-06T19:35:29;100338.56;;;18.98;84.82
42761;BME280;31672;47.638;19.026;2022-09-06T19:40:32;100342.72;;;18.94;85.04
42761;BME280;31672;47.638;19.026;2022-09-06T19:45:37;100333.66;;;18.88;84.75
42761;BME280;31672;47.638;19.026;2022-09-06T19:50:40;100338.72;;;18.78;84.40
42761;BME280;31672;47.638;19.026;2022-09-06T19:55:43;100336.28;;;18.70;85.33
42761;BME280;31672;47.638;19.026;2022-09-06T20:00:46;100346.47;;;18.61;85.04
42761;BME280;31672;47.638;19.026;2022-09-06T20:05:56;100342.19;;;18.54;85.16
42761;BME280;31672;47.638;19.026;2022-09-06T20:11:02;100348.41;;;18.48;85.61
42761;BME280;31672;47.638;19.026;2022-09-06T20:16:07;100343.28;;;18.39;85.63
42761;BME280;31672;47.638;19.026;2022-09-06T20:21:11;100344.13;;;18.33;85.88
42761;BME280;31672;47.638;19.026;2022-09-06T20:26:21;100335.69;;;18.23;85.60
42761;BME280;31672;47.638;19.026;2022-09-06T20:31:26;100342.59;;;18.12;85.68
42761;BME280;31672;47.638;19.026;2022-09-06T20:36:31;100344.28;;;18.07;86.45
42761;BME280;31672;47.638;19.026;2022-09-06T20:41:36;100345.13;;;18.01;86.53
42761;BME280;31672;47.638;19.026;2022-09-06T20:46:39;100333.97;;;17.90;86.39
42761;BME280;31672;47.638;19.026;2022-09-06T20:51:42;100338.78;;;17.82;86.51
42761;BME280;31672;47.638;19.026;2022-09-06T20:56:45;100344.78;;;17.77;86.74
42761;BME280;31672;47.638;19.026;2022-09-06T21:01:48;100337.75;;;17.70;86.86
42761;BME280;31672;47.638;19.026;2022-09-06T21:06:51;100331.75;;;17.61;86.90
42761;BME280;31672;47.638;19.026;2022-09-06T21:11:54;100331.78;;;17.54;87.03
42761;BME280;31672;47.638;19.026;2022-09-06T21:16:57;100325.38;;;17.49;87.38
42761;BME280;31672;47.638;19.026;2022-09-06T21:22:01;100347.91;;;17.48;87.33
42761;BME280;31672;47.638;19.026;2022-09-06T21:27:04;100342.13;;;17.37;87.27
42761;BME280;31672;47.638;19.026;2022-09-06T21:32:09;100335.75;;;17.32;87.88
42761;BME280;31672;47.638;19.026;2022-09-06T21:37:12;100339.88;;;17.21;87.56
42761;BME280;31672;47.638;19.026;2022-09-06T21:42:15;100336.59;;;17.12;88.03
42761;BME280;31672;47.638;19.026;2022-09-06T21:47:20;100336.59;;;17.06;87.99
42761;BME280;31672;47.638;19.026;2022-09-06T21:52:23;100328.13;;;16.96;88.34
42761;BME280;31672;47.638;19.026;2022-09-06T21:57:26;100324.00;;;16.93;88.52
42761;BME280;31672;47.638;19.026;2022-09-06T22:02:29;100332.66;;;16.89;88.87
42761;BME280;31672;47.638;19.026;2022-09-06T22:07:32;100331.22;;;16.86;89.06
42761;BME280;31672;47.638;19.026;2022-09-06T22:12:37;100331.63;;;16.83;89.10
42761;BME280;31672;47.638;19.026;2022-09-06T22:17:40;100327.06;;;16.77;89.24
42761;BME280;31672;47.638;19.026;2022-09-06T22:22:43;100339.88;;;16.75;89.63
42761;BME280;31672;47.638;19.026;2022-09-06T22:27:49;100327.69;;;16.72;89.85
42761;BME280;31672;47.638;19.026;2022-09-06T22:32:53;100325.00;;;16.72;89.82
42761;BME280;31672;47.638;19.026;2022-09-06T22:37:56;100322.91;;;16.68;89.87
42761;BME280;31672;47.638;19.026;2022-09-06T22:42:59;100313.63;;;16.57;89.73
42761;BME280;31672;47.638;19.026;2022-09-06T22:48:02;100309.06;;;16.51;89.97
42761;BME280;31672;47.638;19.026;2022-09-06T22:53:05;100312.13;;;16.48;90.49
42761;BME280;31672;47.638;19.026;2022-09-06T22:58:08;100307.59;;;16.48;90.58
42761;BME280;31672;47.638;19.026;2022-09-06T23:03:11;100307.81;;;16.47;90.74
42761;BME280;31672;47.638;19.026;2022-09-06T23:08:14;100309.22;;;16.43;90.44
42761;BME280;31672;47.638;19.026;2022-09-06T23:13:18;100311.09;;;16.36;90.83
42761;BME280;31672;47.638;19.026;2022-09-06T23:18:21;100313.97;;;16.27;90.59
42761;BME280;31672;47.638;19.026;2022-09-06T23:23:24;100307.75;;;16.20;90.52
42761;BME280;31672;47.638;19.026;2022-09-06T23:28:27;100304.00;;;16.08;90.50
42761;BME280;31672;47.638;19.026;2022-09-06T23:33:31;100301.09;;;16.03;90.60
42761;BME280;31672;47.638;19.026;2022-09-06T23:38:38;100294.09;;;16.02;90.91
42761;BME280;31672;47.638;19.026;2022-09-06T23:43:42;100306.03;;;15.99;91.04
42761;BME280;31672;47.638;19.026;2022-09-06T23:48:45;100295.72;;;15.96;91.14
42761;BME280;31672;47.638;19.026;2022-09-06T23:53:49;100290.94;;;15.92;91.27
42761;BME280;31672;47.638;19.026;2022-09-06T23:58:52;100299.00;;;15.92;91.47
